createdAt,value
2018-11-13T00:02:08.797Z,10.65
2018-11-13T00:04:38.550Z,10.65
2018-11-13T00:07:08.212Z,10.67
2018-11-13T00:09:37.800Z,10.69
2018-11-13T00:12:09.857Z,10.74
2018-11-13T00:14:44.399Z,10.78
2018-11-13T00:17:18.024Z,10.75
2018-11-13T00:19:51.672Z,10.78
2018-11-13T00:22:21.565Z,10.76
2018-11-13T00:24:51.028Z,10.81
2018-11-13T00:27:20.814Z,10.84
2018-11-13T00:29:50.282Z,10.74
2018-11-13T00:32:19.686Z,10.84
2018-11-13T00:34:49.112Z,10.90
2018-11-13T00:37:18.595Z,10.94
2018-11-13T00:39:48.066Z,10.97
2018-11-13T00:42:17.564Z,10.94
2018-11-13T00:44:47.126Z,10.89
2018-11-13T00:47:16.467Z,10.85
2018-11-13T00:49:45.960Z,10.74
2018-11-13T00:52:15.500Z,10.68
2018-11-13T00:54:44.969Z,10.73
2018-11-13T00:57:14.451Z,10.66
2018-11-13T00:59:43.904Z,10.73
2018-11-13T01:02:13.403Z,10.75
2018-11-13T01:04:43.088Z,10.76
2018-11-13T01:07:13.627Z,10.62
2018-11-13T01:09:43.061Z,10.72
2018-11-13T01:12:12.430Z,10.71
2018-11-13T01:14:42.154Z,10.66
2018-11-13T01:17:12.170Z,10.69
2018-11-13T01:19:41.777Z,10.72
2018-11-13T01:22:11.486Z,10.73
2018-11-13T01:24:40.843Z,10.79
2018-11-13T01:27:10.279Z,10.81
2018-11-13T01:29:39.881Z,10.82
2018-11-13T01:32:09.230Z,10.82
2018-11-13T01:34:38.609Z,10.83
2018-11-13T01:37:08.099Z,10.81
2018-11-13T01:39:37.504Z,10.75
2018-11-13T01:42:06.945Z,10.77
2018-11-13T01:44:36.367Z,10.68
2018-11-13T01:47:05.988Z,10.66
2018-11-13T01:49:35.674Z,10.67
2018-11-13T01:52:05.730Z,10.64
2018-11-13T01:54:35.436Z,10.57
2018-11-13T01:57:05.279Z,10.61
2018-11-13T01:59:34.658Z,10.63
2018-11-13T02:02:04.069Z,10.64
2018-11-13T02:04:33.968Z,10.63
2018-11-13T02:07:05.327Z,10.66
2018-11-13T02:09:34.622Z,10.70
2018-11-13T02:12:04.116Z,10.70
2018-11-13T02:14:33.787Z,10.73
2018-11-13T02:17:03.153Z,10.69
2018-11-13T02:19:32.567Z,10.71
2018-11-13T02:22:02.170Z,10.70
2018-11-13T02:24:32.597Z,10.67
2018-11-13T02:27:04.113Z,10.67
2018-11-13T02:29:37.281Z,10.67
2018-11-13T02:32:07.767Z,10.67
2018-11-13T02:34:37.213Z,10.63
2018-11-13T02:37:06.782Z,10.65
2018-11-13T02:39:36.138Z,10.68
2018-11-13T02:42:05.972Z,10.71
2018-11-13T02:44:35.368Z,10.67
2018-11-13T02:47:04.983Z,10.69
2018-11-13T02:49:34.486Z,10.64
2018-11-13T02:52:03.888Z,10.65
2018-11-13T02:54:33.801Z,10.61
2018-11-13T02:57:03.189Z,10.56
2018-11-13T02:59:32.553Z,10.61
2018-11-13T03:02:02.044Z,10.60
2018-11-13T03:04:31.430Z,10.61
2018-11-13T03:07:01.062Z,10.55
2018-11-13T03:09:30.759Z,10.52
2018-11-13T03:12:00.139Z,10.48
2018-11-13T03:14:29.509Z,10.41
2018-11-13T03:16:59.491Z,10.36
2018-11-13T03:19:28.963Z,10.34
2018-11-13T03:21:58.490Z,10.36
2018-11-13T03:24:27.960Z,10.38
2018-11-13T03:26:57.307Z,10.34
2018-11-13T03:29:26.770Z,10.37
2018-11-13T03:31:56.156Z,10.37
2018-11-13T03:34:25.464Z,10.38
2018-11-13T03:36:54.795Z,10.37
2018-11-13T03:39:24.525Z,10.33
2018-11-13T03:41:54.041Z,10.33
2018-11-13T03:44:23.382Z,10.32
2018-11-13T03:46:52.790Z,10.32
2018-11-13T03:49:22.153Z,10.30
2018-11-13T03:51:51.541Z,10.26
2018-11-13T03:54:21.318Z,10.26
2018-11-13T03:56:50.754Z,10.25
2018-11-13T03:59:20.188Z,10.30
2018-11-13T04:01:50.116Z,10.31
2018-11-13T04:04:19.474Z,10.35
2018-11-13T04:06:48.982Z,10.40
2018-11-13T04:09:18.523Z,10.41
2018-11-13T04:11:47.932Z,10.40
2018-11-13T04:14:17.337Z,10.39
2018-11-13T04:16:47.254Z,10.43
2018-11-13T04:19:16.655Z,10.44
2018-11-13T04:21:51.287Z,10.42
2018-11-13T04:24:20.715Z,10.45
2018-11-13T04:26:50.337Z,10.45
2018-11-13T04:29:19.726Z,10.40
2018-11-13T04:31:49.091Z,10.41
2018-11-13T04:34:18.395Z,10.35
2018-11-13T04:36:48.363Z,10.30
2018-11-13T04:39:17.858Z,10.31
2018-11-13T04:41:47.215Z,10.36
2018-11-13T04:44:16.670Z,10.38
2018-11-13T04:46:46.101Z,10.35
2018-11-13T04:49:15.450Z,10.38
2018-11-13T04:51:45.184Z,10.39
2018-11-13T04:54:14.537Z,10.40
2018-11-13T04:56:43.974Z,10.41
2018-11-13T04:59:13.543Z,10.40
2018-11-13T05:01:43.131Z,10.37
2018-11-13T05:04:12.513Z,10.31
2018-11-13T05:06:41.882Z,10.31
2018-11-13T05:09:11.347Z,10.27
2018-11-13T05:11:40.677Z,10.26
2018-11-13T05:14:10.176Z,10.21
2018-11-13T05:16:39.834Z,10.18
2018-11-13T05:19:09.238Z,10.11
2018-11-13T05:21:38.736Z,10.07
2018-11-13T05:24:08.126Z,10.06
2018-11-13T05:26:37.516Z,10.03
2018-11-13T05:29:06.957Z,10.00
2018-11-13T05:31:36.318Z,10.01
2018-11-13T05:34:06.229Z,10.05
2018-11-13T05:36:36.964Z,10.01
2018-11-13T05:39:08.821Z,10.00
2018-11-13T05:41:38.420Z,10.02
2018-11-13T05:44:08.507Z,10.04
2018-11-13T05:46:38.341Z,10.04
2018-11-13T05:49:07.846Z,10.02
2018-11-13T05:51:37.184Z,10.01
2018-11-13T05:54:06.678Z,9.98
2018-11-13T05:56:36.077Z,9.96
2018-11-13T05:59:06.533Z,9.96
2018-11-13T06:01:36.786Z,9.92
2018-11-13T06:04:06.333Z,9.93
2018-11-13T06:06:35.754Z,9.93
2018-11-13T06:09:06.826Z,9.91
2018-11-13T06:11:36.126Z,9.83
2018-11-13T06:14:06.175Z,9.82
2018-11-13T06:16:36.082Z,9.83
2018-11-13T06:19:05.531Z,9.80
2018-11-13T06:21:35.071Z,9.80
2018-11-13T06:24:04.569Z,9.80
2018-11-13T06:26:33.915Z,9.75
2018-11-13T06:29:03.290Z,9.75
2018-11-13T06:31:32.715Z,9.70
2018-11-13T06:34:02.128Z,9.70
2018-11-13T06:36:31.502Z,9.71
2018-11-13T06:39:01.290Z,9.69
2018-11-13T06:41:30.866Z,9.62
2018-11-13T06:44:00.381Z,9.59
2018-11-13T06:46:31.642Z,9.62
2018-11-13T06:49:01.167Z,9.62
2018-11-13T06:51:30.400Z,9.62
2018-11-13T06:54:10.942Z,9.58
2018-11-13T06:56:40.249Z,9.60
2018-11-13T06:59:09.798Z,9.63
2018-11-13T07:01:39.194Z,9.64
2018-11-13T07:04:08.463Z,9.63
2018-11-13T07:06:37.892Z,9.59
2018-11-13T07:10:11.021Z,9.60
2018-11-13T07:12:41.538Z,9.59
2018-11-13T07:15:12.948Z,9.60
2018-11-13T07:17:43.703Z,9.66
2018-11-13T07:20:13.253Z,9.70
2018-11-13T07:22:43.306Z,9.73
2018-11-13T07:25:13.259Z,9.79
2018-11-13T07:27:43.275Z,9.84
2018-11-13T07:30:14.014Z,9.89
2018-11-13T07:32:43.943Z,9.90
2018-11-13T07:35:14.736Z,9.94
2018-11-13T07:37:53.216Z,9.92
2018-11-13T07:40:22.849Z,9.97
2018-11-13T07:42:52.743Z,10.01
2018-11-13T07:45:23.127Z,10.05
2018-11-13T07:47:53.116Z,10.08
2018-11-13T07:50:23.280Z,10.15
2018-11-13T07:52:53.791Z,10.18
2018-11-13T07:55:25.716Z,10.20
2018-11-13T07:57:57.366Z,10.24
2018-11-13T08:00:27.381Z,10.24
2018-11-13T08:03:02.734Z,10.29
2018-11-13T08:05:32.716Z,10.36
2018-11-13T08:08:03.189Z,10.45
2018-11-13T08:10:33.040Z,10.57
2018-11-13T08:13:04.682Z,10.61
2018-11-13T08:15:35.596Z,10.65
2018-11-13T08:18:05.385Z,10.68
2018-11-13T08:20:35.066Z,10.67
2018-11-13T08:23:09.220Z,10.64
2018-11-13T08:25:39.861Z,10.66
2018-11-13T08:28:09.808Z,10.93
2018-11-13T08:30:43.172Z,11.26
2018-11-13T08:33:13.151Z,11.46
2018-11-13T08:35:43.013Z,11.54
2018-11-13T08:38:12.653Z,11.62
2018-11-13T08:40:42.207Z,11.93
2018-11-13T08:43:11.948Z,12.37
2018-11-13T08:45:41.336Z,12.87
2018-11-13T08:48:10.721Z,13.15
2018-11-13T08:50:40.896Z,13.10
2018-11-13T08:53:10.354Z,13.02
2018-11-13T08:55:40.872Z,12.88
2018-11-13T08:58:10.449Z,12.62
2018-11-13T09:00:39.803Z,12.53
2018-11-13T09:03:09.284Z,12.26
2018-11-13T09:05:39.820Z,12.08
2018-11-13T09:08:09.246Z,12.19
2018-11-13T09:10:39.603Z,12.23
2018-11-13T09:13:09.066Z,12.33
2018-11-13T09:15:38.652Z,12.44
2018-11-13T09:18:08.150Z,12.37
2018-11-13T09:20:37.498Z,12.43
2018-11-13T09:23:06.884Z,12.55
2018-11-13T09:25:36.546Z,12.63
2018-11-13T09:28:07.253Z,12.70
2018-11-13T09:30:36.909Z,12.83
2018-11-13T09:33:06.396Z,13.18
2018-11-13T09:35:35.829Z,13.50
2018-11-13T09:38:05.496Z,13.67
2018-11-13T09:40:34.974Z,14.01
2018-11-13T09:43:04.707Z,14.02
2018-11-13T09:45:34.165Z,13.80
2018-11-13T09:48:03.726Z,13.50
2018-11-13T09:51:04.067Z,13.07
2018-11-13T09:53:33.566Z,12.83
2018-11-13T09:56:02.939Z,12.68
2018-11-13T09:58:33.598Z,12.58
2018-11-13T10:01:03.285Z,12.49
2018-11-13T10:03:36.099Z,12.40
2018-11-13T10:06:06.597Z,12.31
2018-11-13T10:08:36.199Z,12.23
2018-11-13T10:11:05.783Z,12.16
2018-11-13T10:13:35.224Z,12.16
2018-11-13T10:16:04.934Z,12.12
2018-11-13T10:18:34.281Z,12.12
2018-11-13T10:21:03.732Z,12.11
2018-11-13T10:23:34.350Z,12.10
2018-11-13T10:26:04.945Z,12.15
2018-11-13T10:28:34.637Z,12.21
2018-11-13T10:31:04.172Z,12.20
2018-11-13T10:33:34.113Z,12.19
2018-11-13T10:36:03.803Z,12.14
2018-11-13T10:38:33.298Z,12.19
2018-11-13T10:41:03.103Z,12.19
2018-11-13T10:43:32.682Z,12.25
2018-11-13T10:46:02.566Z,12.27
2018-11-13T10:48:31.962Z,12.25
2018-11-13T10:51:01.567Z,12.13
2018-11-13T10:53:31.182Z,12.06
2018-11-13T10:56:00.758Z,12.06
2018-11-13T10:58:30.726Z,12.10
2018-11-13T11:01:05.502Z,12.04
2018-11-13T11:03:46.013Z,11.99
2018-11-13T11:06:16.185Z,12.01
2018-11-13T11:08:46.209Z,12.04
2018-11-13T11:11:15.874Z,12.06
2018-11-13T11:13:46.918Z,12.06
2018-11-13T11:16:17.243Z,12.06
2018-11-13T11:18:48.139Z,12.00
2018-11-13T11:21:19.911Z,11.97
2018-11-13T11:23:49.643Z,11.87
2018-11-13T11:28:59.112Z,11.84
2018-11-13T11:31:28.702Z,11.87
2018-11-13T11:33:58.251Z,11.91
2018-11-13T11:36:27.730Z,12.10
2018-11-13T11:38:57.229Z,12.27
2018-11-13T11:41:26.975Z,12.28
2018-11-13T11:43:56.554Z,12.36
2018-11-13T11:46:25.912Z,12.43
2018-11-13T11:48:56.504Z,12.31
2018-11-13T11:51:26.036Z,12.36
2018-11-13T11:53:55.557Z,12.36
2018-11-13T11:56:25.104Z,12.40
2018-11-13T11:58:54.796Z,12.55
2018-11-13T12:01:30.581Z,12.60
2018-11-13T12:04:00.110Z,12.58
2018-11-13T12:06:31.711Z,12.54
2018-11-13T12:09:01.315Z,12.54
2018-11-13T12:11:31.083Z,12.50
2018-11-13T12:14:00.965Z,12.48
2018-11-13T12:16:30.600Z,12.38
2018-11-13T12:19:00.157Z,12.41
2018-11-13T12:21:31.720Z,12.40
2018-11-13T12:24:01.692Z,12.37
2018-11-13T12:26:31.310Z,12.33
2018-11-13T12:29:00.780Z,12.33
2018-11-13T12:31:30.225Z,12.31
2018-11-13T12:34:00.419Z,12.26
2018-11-13T12:36:29.800Z,12.25
2018-11-13T12:38:59.308Z,12.21
2018-11-13T12:41:35.362Z,12.16
2018-11-13T12:44:04.936Z,12.09
2018-11-13T12:46:34.435Z,12.12
2018-11-13T12:49:04.122Z,12.18
2018-11-13T12:51:34.607Z,12.17
2018-11-13T12:54:04.460Z,12.14
2018-11-13T12:56:33.835Z,12.12
2018-11-13T12:59:03.250Z,12.11
2018-11-13T13:01:32.776Z,12.09
2018-11-13T13:04:02.165Z,12.06
2018-11-13T13:06:33.804Z,12.03
2018-11-13T13:09:03.416Z,12.06
2018-11-13T13:11:32.815Z,12.18
2018-11-13T13:14:07.574Z,12.21
2018-11-13T13:16:38.104Z,12.27
2018-11-13T13:19:08.081Z,12.28
2018-11-13T13:21:37.492Z,12.25
2018-11-13T13:24:07.376Z,12.25
2018-11-13T13:26:37.470Z,12.23
2018-11-13T13:29:07.282Z,12.21
2018-11-13T13:31:37.620Z,12.12
2018-11-13T13:34:07.012Z,12.09
2018-11-13T13:36:36.376Z,12.07
2018-11-13T13:39:07.897Z,11.93
2018-11-13T13:41:37.326Z,12.01
2018-11-13T13:44:07.148Z,12.07
2018-11-13T13:46:36.796Z,12.00
2018-11-13T13:49:06.669Z,12.02
2018-11-13T13:51:36.371Z,12.01
2018-11-13T13:54:05.902Z,12.01
2018-11-13T13:56:35.395Z,11.97
2018-11-13T13:59:05.011Z,12.02
2018-11-13T14:01:35.302Z,12.02
2018-11-13T14:04:04.852Z,12.07
2018-11-13T14:06:34.474Z,12.16
2018-11-13T14:09:05.158Z,12.17
2018-11-13T14:11:35.682Z,12.25
2018-11-13T14:14:05.653Z,12.29
2018-11-13T14:16:35.257Z,12.30
2018-11-13T14:19:09.544Z,12.25
2018-11-13T14:21:39.849Z,12.24
2018-11-13T14:24:09.435Z,12.17
2018-11-13T14:26:40.183Z,12.12
2018-11-13T14:31:55.318Z,12.12
2018-11-13T14:34:24.733Z,12.11
2018-11-13T14:36:54.245Z,12.07
2018-11-13T14:39:23.842Z,12.10
2018-11-13T14:41:53.528Z,12.06
2018-11-13T14:44:24.093Z,12.04
2018-11-13T14:46:53.438Z,12.00
2018-11-13T14:49:23.993Z,11.96
2018-11-13T14:51:53.584Z,11.96
2018-11-13T14:54:23.127Z,12.02
2018-11-13T14:56:52.885Z,12.04
2018-11-13T14:59:23.209Z,12.03
2018-11-13T15:01:53.004Z,12.03
2018-11-13T15:04:22.270Z,12.03
2018-11-13T15:06:51.856Z,12.02
2018-11-13T15:09:21.183Z,11.99
2018-11-13T15:11:50.597Z,11.97
2018-11-13T15:14:20.115Z,11.96
2018-11-13T15:16:49.467Z,11.96
2018-11-13T15:19:26.730Z,11.91
2018-11-13T15:21:56.279Z,11.93
2018-11-13T15:24:25.903Z,11.94
2018-11-13T15:26:55.175Z,11.96
2018-11-13T15:29:24.629Z,11.93
2018-11-13T15:31:53.971Z,11.94
2018-11-13T15:34:23.474Z,11.97
2018-11-13T15:36:53.876Z,11.94
2018-11-13T15:39:23.387Z,11.91
2018-11-13T15:41:53.915Z,11.90
2018-11-13T15:44:23.392Z,11.90
2018-11-13T15:46:57.410Z,11.84
2018-11-13T15:49:27.286Z,11.83
2018-11-13T15:51:56.823Z,11.81
2018-11-13T15:54:27.005Z,11.74
2018-11-13T15:56:56.611Z,11.78
2018-11-13T15:59:28.738Z,11.80
2018-11-13T16:02:00.722Z,11.81
2018-11-13T16:04:30.760Z,11.80
2018-11-13T16:07:01.427Z,11.74
2018-11-13T16:09:30.979Z,11.67
2018-11-13T16:12:00.386Z,11.59
2018-11-13T16:17:10.030Z,11.45
2018-11-13T16:19:39.604Z,11.37
2018-11-13T16:22:10.177Z,11.33
2018-11-13T16:24:39.661Z,11.29
2018-11-13T16:27:09.034Z,11.27
2018-11-13T16:29:38.537Z,11.29
2018-11-13T16:32:08.303Z,11.28
2018-11-13T16:34:37.814Z,11.26
2018-11-13T16:37:07.534Z,11.23
2018-11-13T16:39:37.950Z,11.25
2018-11-13T16:42:07.742Z,11.27
2018-11-13T16:44:37.118Z,11.30
2018-11-13T16:47:06.601Z,11.31
2018-11-13T16:49:36.074Z,11.33
2018-11-13T16:52:05.701Z,11.37
2018-11-13T16:54:40.446Z,11.40
2018-11-13T16:57:10.911Z,11.39
2018-11-13T16:59:40.421Z,11.40
2018-11-13T17:02:11.031Z,11.40
2018-11-13T17:04:40.613Z,11.41
2018-11-13T17:07:11.051Z,11.42
2018-11-13T17:09:40.501Z,11.42
2018-11-13T17:12:11.149Z,11.42
2018-11-13T17:14:40.701Z,11.44
2018-11-13T17:17:10.373Z,11.49
2018-11-13T17:19:39.887Z,11.47
2018-11-13T17:22:09.285Z,11.51
2018-11-13T17:24:38.962Z,11.50
2018-11-13T17:27:08.667Z,11.48
2018-11-13T17:29:38.135Z,11.42
2018-11-13T17:32:08.004Z,11.44
2018-11-13T17:34:39.371Z,11.47
2018-11-13T17:37:08.870Z,11.49
2018-11-13T17:39:38.283Z,11.51
2018-11-13T17:42:10.506Z,11.51
2018-11-13T17:44:41.380Z,11.41
2018-11-13T17:47:10.807Z,11.32
2018-11-13T17:49:40.231Z,11.23
2018-11-13T17:52:09.762Z,11.22
2018-11-13T17:54:40.223Z,11.17
2018-11-13T17:57:10.262Z,11.15
2018-11-13T17:59:39.710Z,11.10
2018-11-13T18:02:09.736Z,11.06
2018-11-13T18:04:39.413Z,10.99
2018-11-13T18:07:09.048Z,10.98
2018-11-13T18:09:38.662Z,10.97
2018-11-13T18:12:08.444Z,10.95
2018-11-13T18:14:37.899Z,10.92
2018-11-13T18:17:08.421Z,10.93
2018-11-13T18:19:40.095Z,10.93
2018-11-13T18:22:09.672Z,10.92
2018-11-13T18:24:38.885Z,10.95
2018-11-13T18:27:08.816Z,10.94
2018-11-13T18:29:38.619Z,10.87
2018-11-13T18:32:08.079Z,10.86
2018-11-13T18:34:37.675Z,10.85
2018-11-13T18:37:07.404Z,10.88
2018-11-13T18:39:37.486Z,10.87
2018-11-13T18:42:09.023Z,10.89
2018-11-13T18:44:39.855Z,10.87
2018-11-13T18:47:09.668Z,10.85
2018-11-13T18:52:20.876Z,10.86
2018-11-13T18:54:51.806Z,10.84
2018-11-13T18:57:21.493Z,10.83
2018-11-13T18:59:51.053Z,10.86
2018-11-13T19:02:21.484Z,10.89
2018-11-13T19:04:51.663Z,10.90
2018-11-13T19:07:21.272Z,10.92
2018-11-13T19:09:52.884Z,10.95
2018-11-13T19:12:23.789Z,10.95
2018-11-13T19:14:53.721Z,10.98
2018-11-13T19:17:23.773Z,10.98
2018-11-13T19:19:53.712Z,10.99
2018-11-13T19:22:23.418Z,11.01
2018-11-13T19:24:52.986Z,11.04
2018-11-13T19:27:23.822Z,11.04
2018-11-13T19:29:53.945Z,11.06
2018-11-13T19:32:23.328Z,11.09
2018-11-13T19:34:53.294Z,11.09
2018-11-13T19:37:22.807Z,11.10
2018-11-13T19:39:52.461Z,11.08
2018-11-13T19:42:24.552Z,11.06
2018-11-13T19:45:04.779Z,11.11
2018-11-13T19:47:37.835Z,11.10
2018-11-13T19:50:09.456Z,11.09
2018-11-13T19:52:39.287Z,11.12
2018-11-13T19:55:09.983Z,11.11
2018-11-13T19:57:40.422Z,11.10
2018-11-13T20:00:22.128Z,11.11
2018-11-13T20:02:53.443Z,11.13
2018-11-13T20:05:26.575Z,11.12
2018-11-13T20:07:56.386Z,11.11
2018-11-13T20:10:27.392Z,11.13
2018-11-13T20:12:59.136Z,11.14
2018-11-13T20:15:30.858Z,11.16
2018-11-13T20:18:00.615Z,11.13
2018-11-13T20:20:31.850Z,11.02
2018-11-13T20:23:03.898Z,10.90
2018-11-13T20:25:34.889Z,10.86
2018-11-13T20:28:05.336Z,10.80
2018-11-13T20:30:36.270Z,10.74
2018-11-13T20:33:06.302Z,10.71
2018-11-13T20:35:35.931Z,10.72
2018-11-13T20:38:05.987Z,10.68
2018-11-13T20:40:37.138Z,10.69
2018-11-13T20:43:10.283Z,10.66
2018-11-13T20:45:39.827Z,10.67
2018-11-13T20:48:09.335Z,10.68
2018-11-13T20:50:38.793Z,10.70
2018-11-13T20:53:08.284Z,10.72
2018-11-13T20:57:02.024Z,10.72
2018-11-13T20:59:33.085Z,10.60
2018-11-13T21:02:02.555Z,10.53
2018-11-13T21:04:31.912Z,10.48
2018-11-13T21:07:01.367Z,10.43
2018-11-13T21:09:30.769Z,10.39
2018-11-13T21:12:00.240Z,10.39
2018-11-13T21:14:29.832Z,10.38
2018-11-13T21:16:59.453Z,10.39
2018-11-13T21:19:28.826Z,10.38
2018-11-13T21:21:58.767Z,10.40
2018-11-13T21:24:28.221Z,10.43
2018-11-13T21:26:57.655Z,10.42
2018-11-13T21:29:27.154Z,10.44
2018-11-13T21:31:56.755Z,10.43
2018-11-13T21:34:26.490Z,10.45
2018-11-13T21:36:56.109Z,10.44
2018-11-13T21:39:27.437Z,10.43
2018-11-13T21:41:59.792Z,10.40
2018-11-13T21:44:33.546Z,10.40
2018-11-13T21:47:05.744Z,10.40
2018-11-13T21:52:32.453Z,10.39
2018-11-13T21:55:02.316Z,10.38
2018-11-13T21:57:32.897Z,10.40
2018-11-13T22:00:03.951Z,10.43
2018-11-13T22:02:36.359Z,10.45
2018-11-13T22:05:09.856Z,10.48
2018-11-13T22:07:43.091Z,10.52
2018-11-13T22:10:15.228Z,10.52
2018-11-13T22:12:46.735Z,10.52
2018-11-13T22:15:23.481Z,10.51
2018-11-13T22:17:54.528Z,10.53
2018-11-13T22:20:24.843Z,10.53
2018-11-13T22:22:56.467Z,10.55
2018-11-13T22:25:27.187Z,10.52
2018-11-13T22:27:57.713Z,10.52
2018-11-13T22:30:28.883Z,10.50
2018-11-13T22:32:58.364Z,10.47
2018-11-13T22:35:28.278Z,10.48
2018-11-13T22:37:57.804Z,10.47
2018-11-13T22:40:28.417Z,10.47
2018-11-13T22:42:58.502Z,10.48
2018-11-13T22:45:29.943Z,10.50
2018-11-13T22:48:00.375Z,10.52
2018-11-13T22:50:31.271Z,10.52
2018-11-13T22:53:00.648Z,10.49
2018-11-13T22:55:30.397Z,10.47
2018-11-13T22:58:00.852Z,10.46
2018-11-13T23:00:39.242Z,10.47
2018-11-13T23:03:09.880Z,10.50
2018-11-13T23:05:43.801Z,10.53
2018-11-13T23:08:14.701Z,10.55
2018-11-13T23:10:44.248Z,10.55
2018-11-13T23:13:13.931Z,10.55
2018-11-13T23:15:43.502Z,10.57
2018-11-13T23:18:13.878Z,10.57
2018-11-13T23:20:43.357Z,10.57
2018-11-13T23:23:12.877Z,10.60
2018-11-13T23:25:42.754Z,10.59
2018-11-13T23:28:12.292Z,10.59
2018-11-13T23:30:41.744Z,10.58
2018-11-13T23:33:11.597Z,10.58
2018-11-13T23:35:41.137Z,10.57
2018-11-13T23:38:10.627Z,10.57
2018-11-13T23:40:40.094Z,10.56
2018-11-13T23:43:09.796Z,10.57
2018-11-13T23:45:39.075Z,10.55
2018-11-13T23:48:08.537Z,10.57
2018-11-13T23:50:38.054Z,10.60
2018-11-13T23:53:07.658Z,10.60
2018-11-13T23:55:37.244Z,10.59
2018-11-13T23:58:06.814Z,10.60
